Archival Weather

NSFA McMurdo Sound

NSFA McMurdo Sound, Antarctica (NZCM)

Report from: Saturday, February 24, 2024 2:55 PM UTC
Current time: Saturday, June 22, 2024 10:43 AM UTC

Current weather – Weather history – Daily summaries
Weather forecast

Temperature-15.7°C (3.7°F)
Wind chill-21.7°C (-7.1°F)
Dew point-29.0°C (-20.2°F)
Winds 5 kts (2.6 m/s, 5.8 mph) Vrb
Winds variableWinds variable
Visibility6.2 mi. (10 km)
Clouds Sky clear
Altimeter29.17 in.Hg (988 mB)
Relative humidity31 %
Density altitude-6,399 ft. (-1,951 m)
Sea-level pressure108.8 kPa (1088 mB, 32.13 in.Hg)
Remarks Fully automated report
Automated weather observing station with precipitation discriminator
Pressure falling more slowly
Flight conditions Visual Meteorological Conditions
Raw dataNZCM 241455Z AUTO VRB05KT 9999 CLR M16/M29 A2917 RMK AO2 SLP882 T11571290 56004
An error has occurred. This application may no longer respond until reloaded. Reload 🗙